Terminal Aerodrome Forecast
Issued by NWS Portland, OR

Home | Current Version | Previous Version | Text Only | Print | Product List | Glossary On
Versions: 1 2 3 4 5 6 7 8 9 10 11 12 13 14 15 16 17 18 19 20 21 22 23 24 25 26 27 28 29 30 31 32 33 34 35 36 37 38 39 40 41 42 43
193
FTUS46 KPQR 132346
TAFHIO
TAF
KHIO 132346Z 1400/1424 16008KT P6SM -RA OVC045
     FM140300 17010KT 5SM -RA BR BKN022 OVC035
     FM140600 17010KT 4SM -RA BR BKN015 OVC025
     FM141200 19010KT 5SM -RA BR SCT015 OVC025=

USA.gov is the U.S. government's official web portal to all federal, state and local government web resources and services.